sensor_id;sensor_type;location;lat;lon;timestamp;P1;durP1;ratioP1;P2;durP2;ratioP2
12631;SDS011;6381;45.748;12.106;2024-01-15T00:26:41;54.23;;;48.33;;
12631;SDS011;6381;45.748;12.106;2024-01-15T00:29:10;52.37;;;46.87;;
12631;SDS011;6381;45.748;12.106;2024-01-15T00:31:39;51.77;;;46.20;;
12631;SDS011;6381;45.748;12.106;2024-01-15T00:34:08;51.23;;;44.47;;
12631;SDS011;6381;45.748;12.106;2024-01-15T00:36:37;48.93;;;43.50;;
12631;SDS011;6381;45.748;12.106;2024-01-15T00:39:06;48.57;;;42.37;;
12631;SDS011;6381;45.748;12.106;2024-01-15T00:41:35;48.67;;;42.47;;
12631;SDS011;6381;45.748;12.106;2024-01-15T00:44:05;48.67;;;43.37;;
12631;SDS011;6381;45.748;12.106;2024-01-15T00:46:41;48.90;;;43.17;;
12631;SDS011;6381;45.748;12.106;2024-01-15T00:49:10;48.10;;;43.10;;
12631;SDS011;6381;45.748;12.106;2024-01-15T00:51:40;46.90;;;41.60;;
12631;SDS011;6381;45.748;12.106;2024-01-15T00:54:08;47.73;;;42.50;;
12631;SDS011;6381;45.748;12.106;2024-01-15T00:56:37;45.43;;;40.43;;
12631;SDS011;6381;45.748;12.106;2024-01-15T00:59:07;46.27;;;39.27;;
12631;SDS011;6381;45.748;12.106;2024-01-15T01:01:42;44.40;;;39.53;;
12631;SDS011;6381;45.748;12.106;2024-01-15T01:04:12;42.33;;;37.93;;
12631;SDS011;6381;45.748;12.106;2024-01-15T01:22:43;41.60;;;37.20;;
12631;SDS011;6381;45.748;12.106;2024-01-15T01:25:12;43.70;;;38.47;;
12631;SDS011;6381;45.748;12.106;2024-01-15T01:27:41;42.53;;;38.03;;
12631;SDS011;6381;45.748;12.106;2024-01-15T01:30:10;42.67;;;38.10;;
12631;SDS011;6381;45.748;12.106;2024-01-15T01:32:39;44.90;;;38.70;;
12631;SDS011;6381;45.748;12.106;2024-01-15T01:35:08;43.70;;;38.67;;
12631;SDS011;6381;45.748;12.106;2024-01-15T01:37:36;43.87;;;39.10;;
12631;SDS011;6381;45.748;12.106;2024-01-15T01:40:07;44.23;;;39.30;;
12631;SDS011;6381;45.748;12.106;2024-01-15T01:42:36;44.80;;;40.03;;
12631;SDS011;6381;45.748;12.106;2024-01-15T01:45:05;43.73;;;39.13;;
12631;SDS011;6381;45.748;12.106;2024-01-15T01:47:34;44.80;;;40.10;;
12631;SDS011;6381;45.748;12.106;2024-01-15T01:50:03;44.57;;;39.87;;
12631;SDS011;6381;45.748;12.106;2024-01-15T01:52:32;45.10;;;40.33;;
12631;SDS011;6381;45.748;12.106;2024-01-15T01:55:01;45.73;;;39.70;;
12631;SDS011;6381;45.748;12.106;2024-01-15T01:57:32;44.33;;;39.53;;
12631;SDS011;6381;45.748;12.106;2024-01-15T02:04:08;42.63;;;38.20;;
12631;SDS011;6381;45.748;12.106;2024-01-15T02:07:34;44.33;;;39.53;;
12631;SDS011;6381;45.748;12.106;2024-01-15T02:10:03;47.70;;;40.80;;
12631;SDS011;6381;45.748;12.106;2024-01-15T02:12:34;46.57;;;39.97;;
12631;SDS011;6381;45.748;12.106;2024-01-15T02:15:03;44.47;;;39.77;;
12631;SDS011;6381;45.748;12.106;2024-01-15T02:17:32;43.20;;;38.70;;
12631;SDS011;6381;45.748;12.106;2024-01-15T02:20:01;43.83;;;39.23;;
12631;SDS011;6381;45.748;12.106;2024-01-15T02:22:30;43.07;;;38.67;;
12631;SDS011;6381;45.748;12.106;2024-01-15T02:25:00;42.40;;;37.83;;
12631;SDS011;6381;45.748;12.106;2024-01-15T02:27:30;41.00;;;36.80;;
12631;SDS011;6381;45.748;12.106;2024-01-15T02:29:58;41.93;;;37.53;;
12631;SDS011;6381;45.748;12.106;2024-01-15T02:32:27;41.93;;;37.50;;
12631;SDS011;6381;45.748;12.106;2024-01-15T02:34:56;41.80;;;37.33;;
12631;SDS011;6381;45.748;12.106;2024-01-15T02:37:25;42.37;;;37.90;;
12631;SDS011;6381;45.748;12.106;2024-01-15T02:39:54;41.77;;;37.17;;
12631;SDS011;6381;45.748;12.106;2024-01-15T02:42:24;40.17;;;35.17;;
12631;SDS011;6381;45.748;12.106;2024-01-15T02:44:54;42.47;;;37.53;;
12631;SDS011;6381;45.748;12.106;2024-01-15T02:47:23;41.70;;;37.30;;
12631;SDS011;6381;45.748;12.106;2024-01-15T02:49:52;41.53;;;35.87;;
12631;SDS011;6381;45.748;12.106;2024-01-15T02:52:20;41.57;;;37.03;;
12631;SDS011;6381;45.748;12.106;2024-01-15T02:54:49;40.60;;;36.20;;
12631;SDS011;6381;45.748;12.106;2024-01-15T02:57:18;41.53;;;37.23;;
12631;SDS011;6381;45.748;12.106;2024-01-15T02:59:51;40.47;;;36.23;;
12631;SDS011;6381;45.748;12.106;2024-01-15T03:02:19;41.13;;;36.63;;
12631;SDS011;6381;45.748;12.106;2024-01-15T03:04:49;40.83;;;36.50;;
12631;SDS011;6381;45.748;12.106;2024-01-15T03:07:17;40.17;;;36.00;;
12631;SDS011;6381;45.748;12.106;2024-01-15T03:09:46;40.77;;;36.47;;
12631;SDS011;6381;45.748;12.106;2024-01-15T03:24:57;37.57;;;33.50;;
12631;SDS011;6381;45.748;12.106;2024-01-15T03:27:27;37.70;;;33.63;;
12631;SDS011;6381;45.748;12.106;2024-01-15T03:29:56;37.53;;;33.63;;
12631;SDS011;6381;45.748;12.106;2024-01-15T03:32:24;38.17;;;33.50;;
12631;SDS011;6381;45.748;12.106;2024-01-15T03:34:53;38.00;;;33.90;;
12631;SDS011;6381;45.748;12.106;2024-01-15T03:37:22;37.33;;;33.40;;
12631;SDS011;6381;45.748;12.106;2024-01-15T03:39:51;35.97;;;32.07;;
12631;SDS011;6381;45.748;12.106;2024-01-15T03:42:21;37.63;;;33.83;;
12631;SDS011;6381;45.748;12.106;2024-01-15T03:44:50;36.83;;;32.83;;
12631;SDS011;6381;45.748;12.106;2024-01-15T03:47:19;38.53;;;34.53;;
12631;SDS011;6381;45.748;12.106;2024-01-15T03:49:48;35.23;;;31.63;;
12631;SDS011;6381;45.748;12.106;2024-01-15T03:52:16;37.13;;;33.47;;
12631;SDS011;6381;45.748;12.106;2024-01-15T03:54:45;37.27;;;33.47;;
12631;SDS011;6381;45.748;12.106;2024-01-15T03:57:14;38.87;;;34.97;;
12631;SDS011;6381;45.748;12.106;2024-01-15T03:59:44;37.47;;;33.57;;
12631;SDS011;6381;45.748;12.106;2024-01-15T04:02:14;38.73;;;34.47;;
12631;SDS011;6381;45.748;12.106;2024-01-15T04:04:43;41.40;;;36.07;;
12631;SDS011;6381;45.748;12.106;2024-01-15T04:07:12;39.53;;;35.43;;
12631;SDS011;6381;45.748;12.106;2024-01-15T04:09:40;40.53;;;36.23;;
12631;SDS011;6381;45.748;12.106;2024-01-15T04:12:09;41.50;;;36.97;;
12631;SDS011;6381;45.748;12.106;2024-01-15T04:14:38;40.57;;;36.17;;
12631;SDS011;6381;45.748;12.106;2024-01-15T04:17:08;42.50;;;38.07;;
12631;SDS011;6381;45.748;12.106;2024-01-15T04:19:37;43.63;;;38.93;;
12631;SDS011;6381;45.748;12.106;2024-01-15T04:22:06;44.17;;;39.47;;
12631;SDS011;6381;45.748;12.106;2024-01-15T04:24:34;44.37;;;39.60;;
12631;SDS011;6381;45.748;12.106;2024-01-15T04:27:03;50.37;;;42.80;;
12631;SDS011;6381;45.748;12.106;2024-01-15T04:29:32;46.83;;;41.80;;
12631;SDS011;6381;45.748;12.106;2024-01-15T04:32:04;46.60;;;41.20;;
12631;SDS011;6381;45.748;12.106;2024-01-15T04:34:34;47.63;;;41.77;;
12631;SDS011;6381;45.748;12.106;2024-01-15T04:37:03;48.20;;;41.43;;
12631;SDS011;6381;45.748;12.106;2024-01-15T04:39:34;45.37;;;40.07;;
12631;SDS011;6381;45.748;12.106;2024-01-15T04:42:03;49.80;;;44.00;;
12631;SDS011;6381;45.748;12.106;2024-01-15T04:44:32;47.30;;;42.30;;
12631;SDS011;6381;45.748;12.106;2024-01-15T04:47:01;48.03;;;42.80;;
12631;SDS011;6381;45.748;12.106;2024-01-15T04:49:30;49.67;;;44.40;;
12631;SDS011;6381;45.748;12.106;2024-01-15T04:52:00;49.93;;;44.70;;
12631;SDS011;6381;45.748;12.106;2024-01-15T04:54:31;52.27;;;46.53;;
12631;SDS011;6381;45.748;12.106;2024-01-15T04:57:00;48.73;;;43.43;;
12631;SDS011;6381;45.748;12.106;2024-01-15T04:59:29;49.23;;;43.83;;
12631;SDS011;6381;45.748;12.106;2024-01-15T05:01:58;48.90;;;43.40;;
12631;SDS011;6381;45.748;12.106;2024-01-15T05:04:26;47.83;;;42.73;;
12631;SDS011;6381;45.748;12.106;2024-01-15T05:06:55;47.10;;;42.00;;
12631;SDS011;6381;45.748;12.106;2024-01-15T05:09:25;46.63;;;41.40;;
12631;SDS011;6381;45.748;12.106;2024-01-15T05:11:58;46.77;;;41.73;;
12631;SDS011;6381;45.748;12.106;2024-01-15T05:14:27;45.50;;;40.70;;
12631;SDS011;6381;45.748;12.106;2024-01-15T05:16:56;45.63;;;40.70;;
12631;SDS011;6381;45.748;12.106;2024-01-15T05:19:25;47.20;;;39.63;;
12631;SDS011;6381;45.748;12.106;2024-01-15T05:21:54;46.90;;;40.97;;
12631;SDS011;6381;45.748;12.106;2024-01-15T05:24:26;44.77;;;39.97;;
12631;SDS011;6381;45.748;12.106;2024-01-15T05:26:55;43.30;;;38.77;;
12631;SDS011;6381;45.748;12.106;2024-01-15T05:29:24;43.90;;;39.27;;
12631;SDS011;6381;45.748;12.106;2024-01-15T05:31:53;43.03;;;38.27;;
12631;SDS011;6381;45.748;12.106;2024-01-15T05:34:26;43.53;;;38.83;;
12631;SDS011;6381;45.748;12.106;2024-01-15T05:36:55;49.57;;;41.97;;
12631;SDS011;6381;45.748;12.106;2024-01-15T05:39:24;43.57;;;38.93;;
12631;SDS011;6381;45.748;12.106;2024-01-15T05:41:54;44.63;;;39.83;;
12631;SDS011;6381;45.748;12.106;2024-01-15T05:44:23;43.50;;;38.90;;
12631;SDS011;6381;45.748;12.106;2024-01-15T05:46:53;42.83;;;38.47;;
12631;SDS011;6381;45.748;12.106;2024-01-15T05:49:22;42.90;;;38.27;;
12631;SDS011;6381;45.748;12.106;2024-01-15T05:51:51;38.97;;;34.57;;
12631;SDS011;6381;45.748;12.106;2024-01-15T05:54:20;39.03;;;34.63;;
12631;SDS011;6381;45.748;12.106;2024-01-15T05:56:48;36.67;;;32.77;;
12631;SDS011;6381;45.748;12.106;2024-01-15T05:59:18;34.20;;;29.73;;
12631;SDS011;6381;45.748;12.106;2024-01-15T06:01:47;32.60;;;29.20;;
12631;SDS011;6381;45.748;12.106;2024-01-15T06:04:16;32.53;;;28.67;;
12631;SDS011;6381;45.748;12.106;2024-01-15T06:06:45;35.30;;;31.53;;
12631;SDS011;6381;45.748;12.106;2024-01-15T06:09:14;34.67;;;31.07;;
12631;SDS011;6381;45.748;12.106;2024-01-15T06:11:43;34.90;;;31.27;;
12631;SDS011;6381;45.748;12.106;2024-01-15T06:14:12;32.70;;;29.17;;
12631;SDS011;6381;45.748;12.106;2024-01-15T06:16:42;31.93;;;28.17;;
12631;SDS011;6381;45.748;12.106;2024-01-15T06:19:11;30.80;;;27.60;;
12631;SDS011;6381;45.748;12.106;2024-01-15T06:21:40;31.07;;;27.80;;
12631;SDS011;6381;45.748;12.106;2024-01-15T06:24:09;30.83;;;27.50;;
12631;SDS011;6381;45.748;12.106;2024-01-15T06:26:38;31.80;;;28.30;;
12631;SDS011;6381;45.748;12.106;2024-01-15T06:29:07;31.87;;;28.50;;
12631;SDS011;6381;45.748;12.106;2024-01-15T06:31:35;32.10;;;27.87;;
12631;SDS011;6381;45.748;12.106;2024-01-15T06:34:06;31.87;;;28.53;;
12631;SDS011;6381;45.748;12.106;2024-01-15T06:36:35;35.43;;;31.60;;
12631;SDS011;6381;45.748;12.106;2024-01-15T06:39:06;36.23;;;32.20;;
12631;SDS011;6381;45.748;12.106;2024-01-15T06:41:35;33.67;;;30.37;;
12631;SDS011;6381;45.748;12.106;2024-01-15T06:44:08;31.13;;;27.87;;
12631;SDS011;6381;45.748;12.106;2024-01-15T06:46:36;32.57;;;29.27;;
12631;SDS011;6381;45.748;12.106;2024-01-15T06:49:06;31.83;;;28.67;;
12631;SDS011;6381;45.748;12.106;2024-01-15T06:51:35;31.97;;;28.40;;
12631;SDS011;6381;45.748;12.106;2024-01-15T06:54:04;31.60;;;28.30;;
12631;SDS011;6381;45.748;12.106;2024-01-15T06:56:33;31.20;;;27.83;;
12631;SDS011;6381;45.748;12.106;2024-01-15T06:59:02;31.73;;;28.33;;
12631;SDS011;6381;45.748;12.106;2024-01-15T07:01:31;33.60;;;29.07;;
12631;SDS011;6381;45.748;12.106;2024-01-15T07:03:59;32.73;;;29.23;;
12631;SDS011;6381;45.748;12.106;2024-01-15T07:06:30;31.77;;;27.57;;
12631;SDS011;6381;45.748;12.106;2024-01-15T07:08:58;30.80;;;27.67;;
12631;SDS011;6381;45.748;12.106;2024-01-15T07:11:27;33.93;;;30.27;;
12631;SDS011;6381;45.748;12.106;2024-01-15T07:13:56;34.73;;;31.13;;
12631;SDS011;6381;45.748;12.106;2024-01-15T07:16:25;34.67;;;30.93;;
12631;SDS011;6381;45.748;12.106;2024-01-15T07:19:03;33.30;;;29.73;;
12631;SDS011;6381;45.748;12.106;2024-01-15T07:21:34;35.93;;;28.97;;
12631;SDS011;6381;45.748;12.106;2024-01-15T07:24:03;34.87;;;31.27;;
12631;SDS011;6381;45.748;12.106;2024-01-15T07:26:32;33.63;;;29.47;;
12631;SDS011;6381;45.748;12.106;2024-01-15T07:29:01;31.43;;;28.10;;
12631;SDS011;6381;45.748;12.106;2024-01-15T07:31:30;31.40;;;28.13;;
12631;SDS011;6381;45.748;12.106;2024-01-15T07:33:59;30.60;;;27.13;;
12631;SDS011;6381;45.748;12.106;2024-01-15T07:36:28;31.20;;;27.90;;
12631;SDS011;6381;45.748;12.106;2024-01-15T07:38:59;34.03;;;28.73;;
12631;SDS011;6381;45.748;12.106;2024-01-15T07:41:28;29.30;;;26.50;;
12631;SDS011;6381;45.748;12.106;2024-01-15T07:43:57;29.93;;;26.77;;
12631;SDS011;6381;45.748;12.106;2024-01-15T07:46:28;31.53;;;27.17;;
12631;SDS011;6381;45.748;12.106;2024-01-15T07:48:57;32.60;;;29.20;;
12631;SDS011;6381;45.748;12.106;2024-01-15T07:51:26;31.40;;;27.77;;
12631;SDS011;6381;45.748;12.106;2024-01-15T07:53:55;32.70;;;28.17;;
12631;SDS011;6381;45.748;12.106;2024-01-15T07:56:26;31.17;;;27.93;;
12631;SDS011;6381;45.748;12.106;2024-01-15T07:58:55;31.73;;;28.33;;
12631;SDS011;6381;45.748;12.106;2024-01-15T08:01:24;31.07;;;27.87;;
12631;SDS011;6381;45.748;12.106;2024-01-15T08:03:53;31.33;;;27.90;;
12631;SDS011;6381;45.748;12.106;2024-01-15T08:06:22;33.60;;;28.77;;
12631;SDS011;6381;45.748;12.106;2024-01-15T08:08:51;33.03;;;29.50;;
12631;SDS011;6381;45.748;12.106;2024-01-15T08:11:20;35.50;;;31.70;;
12631;SDS011;6381;45.748;12.106;2024-01-15T08:13:50;44.30;;;36.90;;
12631;SDS011;6381;45.748;12.106;2024-01-15T08:16:19;47.23;;;39.40;;
12631;SDS011;6381;45.748;12.106;2024-01-15T08:18:47;37.90;;;32.30;;
12631;SDS011;6381;45.748;12.106;2024-01-15T08:21:16;33.07;;;29.57;;
12631;SDS011;6381;45.748;12.106;2024-01-15T08:23:45;34.07;;;30.47;;
12631;SDS011;6381;45.748;12.106;2024-01-15T08:26:14;39.30;;;35.00;;
12631;SDS011;6381;45.748;12.106;2024-01-15T08:28:42;37.50;;;33.23;;
12631;SDS011;6381;45.748;12.106;2024-01-15T08:31:13;40.57;;;32.83;;
12631;SDS011;6381;45.748;12.106;2024-01-15T08:33:43;36.07;;;31.77;;
12631;SDS011;6381;45.748;12.106;2024-01-15T08:36:14;34.67;;;30.90;;
12631;SDS011;6381;45.748;12.106;2024-01-15T08:38:45;34.63;;;29.10;;
12631;SDS011;6381;45.748;12.106;2024-01-15T08:41:22;33.33;;;29.67;;
12631;SDS011;6381;45.748;12.106;2024-01-15T08:43:51;43.33;;;38.33;;
12631;SDS011;6381;45.748;12.106;2024-01-15T08:46:22;42.13;;;37.53;;
12631;SDS011;6381;45.748;12.106;2024-01-15T08:48:51;41.10;;;36.23;;
12631;SDS011;6381;45.748;12.106;2024-01-15T08:51:20;41.37;;;37.03;;
12631;SDS011;6381;45.748;12.106;2024-01-15T08:53:49;34.60;;;29.70;;
12631;SDS011;6381;45.748;12.106;2024-01-15T08:56:18;36.60;;;32.50;;
12631;SDS011;6381;45.748;12.106;2024-01-15T08:58:46;41.60;;;32.67;;
12631;SDS011;6381;45.748;12.106;2024-01-15T09:01:15;30.67;;;27.33;;
12631;SDS011;6381;45.748;12.106;2024-01-15T09:03:45;32.03;;;28.53;;
12631;SDS011;6381;45.748;12.106;2024-01-15T09:06:15;32.27;;;28.90;;
12631;SDS011;6381;45.748;12.106;2024-01-15T09:08:47;34.93;;;31.30;;
12631;SDS011;6381;45.748;12.106;2024-01-15T09:11:16;37.67;;;33.53;;
12631;SDS011;6381;45.748;12.106;2024-01-15T09:13:44;40.80;;;35.70;;
12631;SDS011;6381;45.748;12.106;2024-01-15T09:16:13;44.50;;;37.93;;
12631;SDS011;6381;45.748;12.106;2024-01-15T09:18:42;39.07;;;34.90;;
12631;SDS011;6381;45.748;12.106;2024-01-15T09:21:15;35.07;;;31.03;;
12631;SDS011;6381;45.748;12.106;2024-01-15T09:23:44;34.73;;;28.53;;
12631;SDS011;6381;45.748;12.106;2024-01-15T09:26:13;31.13;;;26.47;;
12631;SDS011;6381;45.748;12.106;2024-01-15T09:28:42;28.80;;;25.70;;
12631;SDS011;6381;45.748;12.106;2024-01-15T09:31:11;33.57;;;28.80;;
12631;SDS011;6381;45.748;12.106;2024-01-15T09:33:40;36.93;;;31.00;;
12631;SDS011;6381;45.748;12.106;2024-01-15T09:36:09;37.53;;;33.27;;
12631;SDS011;6381;45.748;12.106;2024-01-15T09:38:39;41.17;;;35.10;;
12631;SDS011;6381;45.748;12.106;2024-01-15T09:41:09;38.87;;;34.73;;
12631;SDS011;6381;45.748;12.106;2024-01-15T09:43:38;44.17;;;36.53;;
12631;SDS011;6381;45.748;12.106;2024-01-15T09:46:06;42.63;;;37.13;;
12631;SDS011;6381;45.748;12.106;2024-01-15T09:48:36;42.37;;;37.73;;
12631;SDS011;6381;45.748;12.106;2024-01-15T09:51:06;42.97;;;37.50;;
12631;SDS011;6381;45.748;12.106;2024-01-15T09:53:35;44.63;;;38.60;;
12631;SDS011;6381;45.748;12.106;2024-01-15T09:56:06;42.50;;;37.77;;
12631;SDS011;6381;45.748;12.106;2024-01-15T09:58:34;46.57;;;39.17;;
12631;SDS011;6381;45.748;12.106;2024-01-15T10:01:03;45.07;;;40.17;;
12631;SDS011;6381;45.748;12.106;2024-01-15T10:03:34;49.07;;;39.33;;
12631;SDS011;6381;45.748;12.106;2024-01-15T10:06:05;48.77;;;39.47;;
12631;SDS011;6381;45.748;12.106;2024-01-15T10:08:34;43.13;;;37.63;;
12631;SDS011;6381;45.748;12.106;2024-01-15T10:11:07;43.80;;;37.60;;
12631;SDS011;6381;45.748;12.106;2024-01-15T10:13:36;44.00;;;39.30;;
12631;SDS011;6381;45.748;12.106;2024-01-15T10:16:07;46.47;;;38.27;;
12631;SDS011;6381;45.748;12.106;2024-01-15T10:18:36;46.27;;;40.07;;
12631;SDS011;6381;45.748;12.106;2024-01-15T10:21:06;48.60;;;41.57;;
12631;SDS011;6381;45.748;12.106;2024-01-15T10:23:35;50.37;;;41.27;;
12631;SDS011;6381;45.748;12.106;2024-01-15T10:26:04;46.63;;;40.17;;
12631;SDS011;6381;45.748;12.106;2024-01-15T10:28:34;47.23;;;42.03;;
12631;SDS011;6381;45.748;12.106;2024-01-15T10:31:03;49.13;;;42.57;;
12631;SDS011;6381;45.748;12.106;2024-01-15T10:33:32;52.93;;;41.70;;
12631;SDS011;6381;45.748;12.106;2024-01-15T10:36:00;46.80;;;40.27;;
12631;SDS011;6381;45.748;12.106;2024-01-15T10:38:29;47.40;;;42.13;;
12631;SDS011;6381;45.748;12.106;2024-01-15T10:40:58;48.80;;;43.17;;
12631;SDS011;6381;45.748;12.106;2024-01-15T10:43:27;49.10;;;41.93;;
12631;SDS011;6381;45.748;12.106;2024-01-15T10:45:57;50.77;;;42.17;;
12631;SDS011;6381;45.748;12.106;2024-01-15T10:48:26;48.47;;;42.80;;
12631;SDS011;6381;45.748;12.106;2024-01-15T10:50:57;56.23;;;43.73;;
12631;SDS011;6381;45.748;12.106;2024-01-15T10:53:26;48.80;;;42.23;;
12631;SDS011;6381;45.748;12.106;2024-01-15T10:55:55;51.77;;;42.30;;
12631;SDS011;6381;45.748;12.106;2024-01-15T10:58:24;48.00;;;41.13;;
12631;SDS011;6381;45.748;12.106;2024-01-15T11:00:58;53.87;;;41.63;;
12631;SDS011;6381;45.748;12.106;2024-01-15T11:03:28;51.57;;;40.77;;
12631;SDS011;6381;45.748;12.106;2024-01-15T11:05:57;52.23;;;42.43;;
12631;SDS011;6381;45.748;12.106;2024-01-15T11:08:27;52.83;;;42.93;;
12631;SDS011;6381;45.748;12.106;2024-01-15T11:10:56;54.03;;;42.30;;
12631;SDS011;6381;45.748;12.106;2024-01-15T11:13:39;53.63;;;42.23;;
12631;SDS011;6381;45.748;12.106;2024-01-15T11:16:11;48.87;;;40.23;;
12631;SDS011;6381;45.748;12.106;2024-01-15T11:18:40;50.53;;;40.07;;
12631;SDS011;6381;45.748;12.106;2024-01-15T11:23:57;48.40;;;39.90;;
12631;SDS011;6381;45.748;12.106;2024-01-15T11:26:30;51.50;;;42.40;;
12631;SDS011;6381;45.748;12.106;2024-01-15T11:29:02;50.17;;;39.47;;
12631;SDS011;6381;45.748;12.106;2024-01-15T11:37:28;54.60;;;41.33;;
12631;SDS011;6381;45.748;12.106;2024-01-15T11:40:17;49.43;;;40.33;;
12631;SDS011;6381;45.748;12.106;2024-01-15T11:42:47;46.53;;;36.03;;
12631;SDS011;6381;45.748;12.106;2024-01-15T11:45:17;49.73;;;38.33;;
12631;SDS011;6381;45.748;12.106;2024-01-15T11:47:56;48.40;;;37.10;;
12631;SDS011;6381;45.748;12.106;2024-01-15T11:50:39;47.63;;;38.50;;
12631;SDS011;6381;45.748;12.106;2024-01-15T11:53:13;47.53;;;37.60;;
12631;SDS011;6381;45.748;12.106;2024-01-15T11:55:46;46.00;;;37.53;;
12631;SDS011;6381;45.748;12.106;2024-01-15T11:58:15;43.37;;;34.50;;
12631;SDS011;6381;45.748;12.106;2024-01-15T12:00:44;44.73;;;35.83;;
12631;SDS011;6381;45.748;12.106;2024-01-15T12:03:17;48.13;;;34.93;;
12631;SDS011;6381;45.748;12.106;2024-01-15T12:05:49;43.97;;;35.33;;
12631;SDS011;6381;45.748;12.106;2024-01-15T12:08:20;49.80;;;39.57;;
12631;SDS011;6381;45.748;12.106;2024-01-15T12:10:49;48.90;;;37.27;;
12631;SDS011;6381;45.748;12.106;2024-01-15T12:13:19;44.20;;;34.87;;
12631;SDS011;6381;45.748;12.106;2024-01-15T12:15:48;49.07;;;39.13;;
12631;SDS011;6381;45.748;12.106;2024-01-15T12:18:18;50.93;;;38.07;;
12631;SDS011;6381;45.748;12.106;2024-01-15T12:20:48;51.17;;;42.00;;
12631;SDS011;6381;45.748;12.106;2024-01-15T12:23:19;57.20;;;44.57;;
12631;SDS011;6381;45.748;12.106;2024-01-15T12:25:47;54.77;;;41.23;;
12631;SDS011;6381;45.748;12.106;2024-01-15T12:28:17;57.37;;;42.47;;
12631;SDS011;6381;45.748;12.106;2024-01-15T12:30:46;54.80;;;43.03;;
12631;SDS011;6381;45.748;12.106;2024-01-15T12:33:19;51.23;;;38.43;;
12631;SDS011;6381;45.748;12.106;2024-01-15T12:35:48;52.40;;;39.07;;
12631;SDS011;6381;45.748;12.106;2024-01-15T12:38:20;53.07;;;41.57;;
12631;SDS011;6381;45.748;12.106;2024-01-15T12:40:50;51.63;;;40.53;;
12631;SDS011;6381;45.748;12.106;2024-01-15T12:43:19;56.40;;;43.57;;
12631;SDS011;6381;45.748;12.106;2024-01-15T12:45:47;57.03;;;41.70;;
12631;SDS011;6381;45.748;12.106;2024-01-15T12:48:16;52.67;;;39.80;;
12631;SDS011;6381;45.748;12.106;2024-01-15T12:50:46;51.23;;;38.87;;
12631;SDS011;6381;45.748;12.106;2024-01-15T12:53:15;49.67;;;40.17;;
12631;SDS011;6381;45.748;12.106;2024-01-15T12:55:44;46.27;;;37.63;;
12631;SDS011;6381;45.748;12.106;2024-01-15T12:58:13;47.70;;;37.57;;
12631;SDS011;6381;45.748;12.106;2024-01-15T13:00:46;47.03;;;36.43;;
12631;SDS011;6381;45.748;12.106;2024-01-15T13:03:15;44.77;;;33.80;;
12631;SDS011;6381;45.748;12.106;2024-01-15T13:05:43;51.63;;;40.10;;
12631;SDS011;6381;45.748;12.106;2024-01-15T13:08:14;54.07;;;39.43;;
12631;SDS011;6381;45.748;12.106;2024-01-15T13:10:43;51.43;;;39.87;;
12631;SDS011;6381;45.748;12.106;2024-01-15T13:13:12;55.53;;;43.57;;
12631;SDS011;6381;45.748;12.106;2024-01-15T13:15:40;54.87;;;43.63;;
12631;SDS011;6381;45.748;12.106;2024-01-15T13:18:09;63.00;;;45.47;;
12631;SDS011;6381;45.748;12.106;2024-01-15T13:20:39;59.60;;;48.57;;
12631;SDS011;6381;45.748;12.106;2024-01-15T13:23:08;61.37;;;45.20;;
12631;SDS011;6381;45.748;12.106;2024-01-15T13:25:39;68.33;;;47.40;;
12631;SDS011;6381;45.748;12.106;2024-01-15T13:28:08;66.63;;;50.47;;
12631;SDS011;6381;45.748;12.106;2024-01-15T13:30:37;66.63;;;47.23;;
12631;SDS011;6381;45.748;12.106;2024-01-15T13:33:06;63.83;;;47.47;;
12631;SDS011;6381;45.748;12.106;2024-01-15T13:35:35;57.00;;;45.57;;
12631;SDS011;6381;45.748;12.106;2024-01-15T13:38:04;65.30;;;46.33;;
12631;SDS011;6381;45.748;12.106;2024-01-15T13:40:32;64.33;;;49.17;;
12631;SDS011;6381;45.748;12.106;2024-01-15T13:43:03;67.20;;;46.20;;
12631;SDS011;6381;45.748;12.106;2024-01-15T13:45:35;61.97;;;45.73;;
12631;SDS011;6381;45.748;12.106;2024-01-15T13:48:04;58.23;;;44.40;;
12631;SDS011;6381;45.748;12.106;2024-01-15T13:50:34;58.30;;;46.17;;
12631;SDS011;6381;45.748;12.106;2024-01-15T13:53:04;65.10;;;46.13;;
12631;SDS011;6381;45.748;12.106;2024-01-15T13:55:35;61.63;;;45.67;;
12631;SDS011;6381;45.748;12.106;2024-01-15T13:58:05;60.30;;;46.67;;
12631;SDS011;6381;45.748;12.106;2024-01-15T14:00:34;55.77;;;44.53;;
12631;SDS011;6381;45.748;12.106;2024-01-15T14:03:03;55.97;;;44.00;;
12631;SDS011;6381;45.748;12.106;2024-01-15T14:05:33;61.90;;;44.20;;
12631;SDS011;6381;45.748;12.106;2024-01-15T14:08:02;58.90;;;45.07;;
12631;SDS011;6381;45.748;12.106;2024-01-15T14:10:31;58.70;;;43.87;;
12631;SDS011;6381;45.748;12.106;2024-01-15T14:13:00;54.43;;;41.97;;
12631;SDS011;6381;45.748;12.106;2024-01-15T14:15:30;58.13;;;43.87;;
12631;SDS011;6381;45.748;12.106;2024-01-15T14:17:58;56.90;;;44.27;;
12631;SDS011;6381;45.748;12.106;2024-01-15T14:20:27;58.60;;;45.30;;
12631;SDS011;6381;45.748;12.106;2024-01-15T14:22:56;58.23;;;44.60;;
12631;SDS011;6381;45.748;12.106;2024-01-15T14:25:25;55.63;;;43.63;;
12631;SDS011;6381;45.748;12.106;2024-01-15T14:27:53;64.90;;;48.57;;
12631;SDS011;6381;45.748;12.106;2024-01-15T14:30:22;61.23;;;47.53;;
12631;SDS011;6381;45.748;12.106;2024-01-15T14:32:52;64.27;;;49.97;;
12631;SDS011;6381;45.748;12.106;2024-01-15T14:35:21;58.93;;;46.77;;
12631;SDS011;6381;45.748;12.106;2024-01-15T14:37:49;64.87;;;50.07;;
12631;SDS011;6381;45.748;12.106;2024-01-15T14:40:18;64.93;;;47.80;;
12631;SDS011;6381;45.748;12.106;2024-01-15T14:42:46;60.97;;;48.37;;
12631;SDS011;6381;45.748;12.106;2024-01-15T14:45:15;62.43;;;49.60;;
12631;SDS011;6381;45.748;12.106;2024-01-15T14:47:44;61.67;;;49.60;;
12631;SDS011;6381;45.748;12.106;2024-01-15T14:50:14;63.50;;;49.87;;
12631;SDS011;6381;45.748;12.106;2024-01-15T14:52:43;65.00;;;51.20;;
12631;SDS011;6381;45.748;12.106;2024-01-15T14:55:12;67.07;;;52.23;;
12631;SDS011;6381;45.748;12.106;2024-01-15T14:57:41;70.77;;;53.93;;
12631;SDS011;6381;45.748;12.106;2024-01-15T15:00:10;74.77;;;55.57;;
12631;SDS011;6381;45.748;12.106;2024-01-15T15:02:40;72.03;;;54.90;;
12631;SDS011;6381;45.748;12.106;2024-01-15T15:05:09;70.60;;;55.57;;
12631;SDS011;6381;45.748;12.106;2024-01-15T15:07:41;78.37;;;60.50;;
12631;SDS011;6381;45.748;12.106;2024-01-15T15:10:10;73.07;;;57.50;;
12631;SDS011;6381;45.748;12.106;2024-01-15T15:12:39;77.47;;;60.70;;
12631;SDS011;6381;45.748;12.106;2024-01-15T15:15:08;77.33;;;58.73;;
12631;SDS011;6381;45.748;12.106;2024-01-15T15:17:44;74.70;;;59.10;;
12631;SDS011;6381;45.748;12.106;2024-01-15T15:20:13;75.07;;;59.60;;
12631;SDS011;6381;45.748;12.106;2024-01-15T15:22:43;81.40;;;59.33;;
12631;SDS011;6381;45.748;12.106;2024-01-15T15:25:12;76.07;;;59.50;;
12631;SDS011;6381;45.748;12.106;2024-01-15T15:27:41;75.97;;;58.67;;
12631;SDS011;6381;45.748;12.106;2024-01-15T15:30:10;76.23;;;58.93;;
12631;SDS011;6381;45.748;12.106;2024-01-15T15:32:39;77.37;;;58.03;;
12631;SDS011;6381;45.748;12.106;2024-01-15T15:35:08;79.30;;;60.57;;
12631;SDS011;6381;45.748;12.106;2024-01-15T15:37:37;76.13;;;58.80;;
12631;SDS011;6381;45.748;12.106;2024-01-15T15:40:08;78.47;;;61.00;;
12631;SDS011;6381;45.748;12.106;2024-01-15T15:42:38;76.30;;;59.73;;